Urucara, Brazil
Current Conditions -  °F | °C
As of 4:00 PM on Wednesday 28 Jan 2015 (Local Time) from SBMN Reporting Station
Scattered Clouds Scattered Clouds  
Wind Chill: 86°   Ceiling: Unl
Heat Index: 93°   Visibility: 6mi
Dew Point: 73°   Wind: 5mph
Humidity: 66%   Direction: 260°W
Pressure: 29.77"   Gusts: NA
Location:  2.52°S, 57.75°W
Report Text: SBMN 282000Z 26004KT 9999 SCT020 FEW025TCU 30/23 Q1008
Loading
Personal Weather Stations






























Interactive Weather Map New forecast layout! Learn more

10-Day Weather Forecast

Advertisements
Track Severe Weather on mobile